^^
Meteo Knjazevac Station Historical Data
Daily Summary for June 13, 2021 Units:  Metric    English   Both
Daily Weekly Monthly Yearly Custom
  High: Low: Average:
Temperature: 2.5 °C 0.7 °C 1.4 °C
Dew Point: 1.3 °C -0.1 °C 0.4 °C
Humidity: 99% 88% 93%
Wind Speed: 14.5km/h 0km/h 6km/h
Wind Gust: 29km/h - -
Wind- - WSW
Pressure: 1022.2 hPa 1018.2 hPa -
Precipitation: 0 mm    
Historical Graphs
 
 
Tabular Data for June 13, 2021
Time Temperature Dew Point Pressure Wind Wind Speed Wind Gust Humidity Rainfall Rate (Hourly) solar Conditions
00:00 0.9 °C 0.2 °C 1018.2 hPa WSW 3.2 km/h 6.4 km/h 95% 0 mm 0 W/m2
00:10 0.9 °C 0.2 °C 1018.2 hPa WSW 8 km/h 9.7 km/h 95% 0 mm 0 W/m2
00:20 0.9 °C 0.2 °C 1018.2 hPa WSW 4.8 km/h 8 km/h 95% 0 mm 0 W/m2
00:30 0.9 °C 0.2 °C 1018.2 hPa WSW 4.8 km/h 9.7 km/h 95% 0 mm 0 W/m2
00:40 0.9 °C 0.2 °C 1018.2 hPa WSW 4.8 km/h 9.7 km/h 95% 0 mm 0 W/m2
00:50 0.9 °C 0.2 °C 1018.2 hPa WSW 4.8 km/h 9.7 km/h 95% 0 mm 0 W/m2
01:00 0.9 °C 0.2 °C 1018.2 hPa WSW 4.8 km/h 9.7 km/h 95% 0 mm 0 W/m2
01:10 0.9 °C 0.2 °C 1018.2 hPa WSW 3.2 km/h 9.7 km/h 95% 0 mm 0 W/m2
01:20 0.9 °C 0.2 °C 1018.2 hPa WSW 4.8 km/h 11.3 km/h 95% 0 mm 0 W/m2
01:30 0.9 °C 0.2 °C 1018.2 hPa Calm   9.7 km/h 95% 0 mm 0 W/m2
01:40 0.9 °C 0.2 °C 1018.2 hPa WSW 3.2 km/h 4.8 km/h 95% 0 mm 0 W/m2
01:50 0.9 °C 0.2 °C 1018.5 hPa WSW 3.2 km/h 6.4 km/h 95% 0 mm 0 W/m2
02:00 0.9 °C 0.2 °C 1018.5 hPa WSW 1.6 km/h 6.4 km/h 95% 0 mm 0 W/m2
02:10 0.9 °C 0.2 °C 1018.5 hPa WSW 3.2 km/h 8 km/h 95% 0 mm 0 W/m2
02:20 0.9 °C 0.2 °C 1018.5 hPa WSW 1.6 km/h 8 km/h 95% 0 mm 0 W/m2
02:30 0.9 °C 0.3 °C 1018.5 hPa WSW 4.8 km/h 11.3 km/h 96% 0 mm 0 W/m2
02:40 0.9 °C 0.2 °C 1018.5 hPa WSW 4.8 km/h 19.3 km/h 95% 0 mm 0 W/m2
02:50 0.9 °C 0.2 °C 1018.2 hPa WSW 8 km/h 11.3 km/h 95% 0 mm 0 W/m2
03:00 0.9 °C 0.2 °C 1018.2 hPa WSW 11.3 km/h 19.3 km/h 95% 0 mm 0 W/m2
03:10 0.9 °C 0.1 °C 1018.2 hPa WSW 9.7 km/h 19.3 km/h 94% 0 mm 0 W/m2
03:20 0.9 °C -0.1 °C 1018.5 hPa WSW 9.7 km/h 16.1 km/h 93% 0 mm 0 W/m2
03:30 0.9 °C 0.1 °C 1018.2 hPa WSW 3.2 km/h 16.1 km/h 94% 0 mm 0 W/m2
03:40 0.9 °C 0.1 °C 1018.2 hPa SW 4.8 km/h 8 km/h 94% 0 mm 0 W/m2
03:50 0.9 °C 0.1 °C 1018.2 hPa SW 3.2 km/h 9.7 km/h 94% 0 mm 0 W/m2
04:00 0.9 °C 0.2 °C 1018.5 hPa WSW 1.6 km/h 4.8 km/h 95% 0 mm 0 W/m2
04:10 0.8 °C 0.1 °C 1018.5 hPa WSW 3.2 km/h 4.8 km/h 95% 0 mm 0 W/m2
04:20 0.9 °C 0.2 °C 1018.5 hPa WSW 1.6 km/h 3.2 km/h 95% 0 mm 0 W/m2
04:30 0.9 °C 0.2 °C 1018.5 hPa WSW 3.2 km/h 4.8 km/h 95% 0 mm 0 W/m2
04:40 0.8 °C 0.1 °C 1018.8 hPa WSW 1.6 km/h 6.4 km/h 95% 0 mm 0 W/m2
04:50 0.8 °C 0.1 °C 1018.8 hPa WSW 1.6 km/h 8 km/h 95% 0 mm 0 W/m2
05:00 0.8 °C 0.1 °C 1018.8 hPa WSW 3.2 km/h 9.7 km/h 95% 0 mm 0 W/m2
05:10 0.8 °C -0.1 °C 1018.8 hPa WSW 8 km/h 12.9 km/h 94% 0 mm 0 W/m2
05:20 0.9 °C 0.2 °C 1018.8 hPa WSW 3.2 km/h 8 km/h 95% 0 mm 0 W/m2
05:30 0.8 °C 0.1 °C 1018.8 hPa WNW 1.6 km/h 3.2 km/h 95% 0 mm 0 W/m2
05:40 0.8 °C 0.1 °C 1018.8 hPa West 1.6 km/h 4.8 km/h 95% 0 mm 0 W/m2
05:50 0.8 °C 0.1 °C 1019.2 hPa WSW 3.2 km/h 8 km/h 95% 0 mm 0 W/m2
06:00 0.8 °C -0.1 °C 1018.8 hPa WSW 9.7 km/h 19.3 km/h 94% 0 mm 0 W/m2
06:10 0.8 °C -0.1 °C 1018.8 hPa WSW 8 km/h 12.9 km/h 94% 0 mm 0 W/m2
06:20 0.8 °C -0.1 °C 1019.2 hPa WSW 4.8 km/h 11.3 km/h 94% 0 mm 0 W/m2
06:30 0.8 °C -0.1 °C 1019.2 hPa WSW 9.7 km/h 12.9 km/h 94% 0 mm 0 W/m2
06:40 0.8 °C -0.1 °C 1019.2 hPa WSW 9.7 km/h 16.1 km/h 94% 0 mm 0 W/m2
06:50 0.9 °C -0.1 °C 1019.2 hPa WSW 12.9 km/h 17.7 km/h 93% 0 mm 0 W/m2
07:00 0.9 °C -0.1 °C 1019.2 hPa WSW 8 km/h 14.5 km/h 93% 0 mm 2 W/m2
07:10 0.9 °C 0.1 °C 1019.5 hPa WSW 4.8 km/h 11.3 km/h 94% 0 mm 3 W/m2
07:20 0.9 °C 0.1 °C 1019.5 hPa WSW 4.8 km/h 11.3 km/h 94% 0 mm 7 W/m2
07:30 0.9 °C 0.1 °C 1019.5 hPa SW 4.8 km/h 11.3 km/h 94% 0 mm 7 W/m2
07:40 0.9 °C 0.1 °C 1019.9 hPa WSW 3.2 km/h 9.7 km/h 94% 0 mm 6 W/m2
07:50 0.9 °C 0.1 °C 1019.9 hPa WSW 4.8 km/h 8 km/h 94% 0 mm 7 W/m2
08:00 0.9 °C 0.1 °C 1019.9 hPa WSW 4.8 km/h 9.7 km/h 94% 0 mm 8 W/m2
08:10 0.9 °C 0.1 °C 1020.2 hPa WSW 4.8 km/h 9.7 km/h 94% 0 mm 9 W/m2
08:20 0.9 °C 0.1 °C 1020.2 hPa WSW 8 km/h 9.7 km/h 94% 0 mm 11 W/m2
08:30 1 °C 0.2 °C 1020.2 hPa WSW 4.8 km/h 9.7 km/h 94% 0 mm 14 W/m2
08:40 1 °C 0.3 °C 1020.2 hPa WSW 4.8 km/h 9.7 km/h 95% 0 mm 19 W/m2
08:50 1 °C 0.3 °C 1020.2 hPa WSW 4.8 km/h 8 km/h 95% 0 mm 21 W/m2
09:00 1.1 °C 0.4 °C 1020.5 hPa WSW 8 km/h 9.7 km/h 95% 0 mm 23 W/m2
09:10 1.1 °C 0.2 °C 1020.2 hPa WSW 8 km/h 12.9 km/h 94% 0 mm 32 W/m2
09:20 1.2 °C 0.3 °C 1020.2 hPa WSW 8 km/h 11.3 km/h 94% 0 mm 72 W/m2
09:30 1.3 °C 0.4 °C 1020.2 hPa WSW 3.2 km/h 9.7 km/h 94% 0 mm 64 W/m2
09:40 1.5 °C 0.8 °C 1020.2 hPa SW 4.8 km/h 8 km/h 95% 0 mm 83 W/m2
09:50 1.6 °C 0.7 °C 1020.2 hPa SW 9.7 km/h 19.3 km/h 94% 0 mm 76 W/m2
10:00 1.7 °C 0.8 °C 1020.5 hPa WSW 8 km/h 14.5 km/h 94% 0 mm 58 W/m2
10:10 1.8 °C 0.9 °C 1020.5 hPa WSW 9.7 km/h 12.9 km/h 94% 0 mm 52 W/m2
10:20 1.8 °C 0.8 °C 1020.5 hPa WSW 11.3 km/h 16.1 km/h 93% 0 mm 48 W/m2
10:30 1.8 °C 0.8 °C 1020.2 hPa WSW 8 km/h 16.1 km/h 93% 0 mm 63 W/m2
10:40 1.9 °C 0.9 °C 1020.2 hPa West 11.3 km/h 16.1 km/h 93% 0 mm 99 W/m2
10:50 2 °C 1 °C 1020.2 hPa West 9.7 km/h 19.3 km/h 93% 0 mm 98 W/m2
11:00 2.1 °C 0.8 °C 1020.2 hPa WSW 12.9 km/h 19.3 km/h 91% 0 mm 122 W/m2
11:10 2.3 °C 1.3 °C 1020.2 hPa WSW 8 km/h 19.3 km/h 93% 0 mm 124 W/m2
11:20 2.3 °C 1 °C 1020.2 hPa West 3.2 km/h 9.7 km/h 91% 0 mm 106 W/m2
11:30 2.4 °C 1.1 °C 1020.2 hPa NNW 3.2 km/h 8 km/h 91% 0 mm 90 W/m2
11:40 2.5 °C 1 °C 1020.2 hPa NNE 1.6 km/h 6.4 km/h 90% 0 mm 64 W/m2
11:50 2.5 °C 1 °C 1020.2 hPa NNE 4.8 km/h 8 km/h 90% 0 mm 41 W/m2
12:00 2.5 °C 1 °C 1020.2 hPa NE 3.2 km/h 9.7 km/h 90% 0 mm 34 W/m2
12:10 2.5 °C 1.2 °C 1020.2 hPa NE 1.6 km/h 9.7 km/h 91% 0 mm 34 W/m2
12:20 2.5 °C 1.2 °C 1020.2 hPa North 1.6 km/h 4.8 km/h 91% 0 mm 33 W/m2
12:30 2.4 °C 0.9 °C 1020.2 hPa NNW 1.6 km/h 6.4 km/h 90% 0 mm 41 W/m2
12:40 2.4 °C 0.9 °C 1020.2 hPa Calm   8 km/h 90% 0 mm 49 W/m2
12:50 2.5 °C 1 °C 1020.2 hPa WNW 3.2 km/h 6.4 km/h 90% 0 mm 38 W/m2
13:00 2.4 °C 0.8 °C 1020.2 hPa West 1.6 km/h 9.7 km/h 89% 0 mm 42 W/m2
13:10 2.4 °C 0.8 °C 1020.2 hPa West 4.8 km/h 11.3 km/h 89% 0 mm 36 W/m2
13:20 2.4 °C 0.8 °C 1020.2 hPa West 4.8 km/h 12.9 km/h 89% 0 mm 39 W/m2
13:30 2.3 °C 0.7 °C 1020.2 hPa West 8 km/h 14.5 km/h 89% 0 mm 34 W/m2
13:40 2.3 °C 0.7 °C 1020.2 hPa WSW 8 km/h 17.7 km/h 89% 0 mm 29 W/m2
13:50 2.3 °C 0.7 °C 1020.2 hPa WSW 8 km/h 12.9 km/h 89% 0 mm 37 W/m2
14:00 2.3 °C 0.7 °C 1020.2 hPa WSW 3.2 km/h 12.9 km/h 89% 0 mm 31 W/m2
14:10 2.4 °C 0.8 °C 1020.2 hPa WSW 4.8 km/h 8 km/h 89% 0 mm 37 W/m2
14:20 2.4 °C 0.8 °C 1020.2 hPa WSW 11.3 km/h 19.3 km/h 89% 0 mm 43 W/m2
14:30 2.4 °C 0.6 °C 1020.5 hPa WSW 8 km/h 19.3 km/h 88% 0 mm 41 W/m2
14:40 2.3 °C 0.7 °C 1020.5 hPa WSW 9.7 km/h 12.9 km/h 89% 0 mm 28 W/m2
14:50 2.3 °C 0.7 °C 1020.5 hPa WSW 9.7 km/h 14.5 km/h 89% 0 mm 26 W/m2
15:00 2.3 °C 0.7 °C 1020.5 hPa WSW 12.9 km/h 20.9 km/h 89% 0 mm 29 W/m2
15:10 2.2 °C 0.6 °C 1020.5 hPa WSW 8 km/h 19.3 km/h 89% 0 mm 18 W/m2
15:20 2.1 °C 0.5 °C 1020.5 hPa WSW 9.7 km/h 17.7 km/h 89% 0 mm 10 W/m2
15:30 2 °C 0.4 °C 1020.5 hPa WSW 8 km/h 12.9 km/h 89% 0 mm 7 W/m2
15:40 1.9 °C 0.3 °C 1020.5 hPa WSW 9.7 km/h 16.1 km/h 89% 0 mm 5 W/m2
15:50 1.9 °C 0.3 °C 1020.5 hPa WSW 11.3 km/h 19.3 km/h 89% 0 mm 2 W/m2
16:00 1.9 °C 0.3 °C 1020.5 hPa WSW 12.9 km/h 22.5 km/h 89% 0 mm 0 W/m2
16:10 1.9 °C 0.3 °C 1020.9 hPa SW 12.9 km/h 25.7 km/h 89% 0 mm 0 W/m2
16:20 1.9 °C 0.3 °C 1020.9 hPa WSW 11.3 km/h 22.5 km/h 89% 0 mm 0 W/m2
16:30 1.9 °C 0.3 °C 1020.9 hPa WSW 11.3 km/h 19.3 km/h 89% 0 mm 0 W/m2
16:40 1.9 °C 0.3 °C 1020.9 hPa SW 3.2 km/h 12.9 km/h 89% 0 mm 0 W/m2
16:50 1.8 °C 0.3 °C 1020.9 hPa WSW 4.8 km/h 14.5 km/h 90% 0 mm 0 W/m2
17:00 1.8 °C 0.3 °C 1020.9 hPa WSW 8 km/h 12.9 km/h 90% 0 mm 0 W/m2
17:10 1.8 °C 0.3 °C 1020.9 hPa WSW 8 km/h 12.9 km/h 90% 0 mm 0 W/m2
17:30 1.8 °C 0.3 °C 1021.2 hPa SW 4.8 km/h 12.9 km/h 90% 0 mm 0 W/m2
17:40 1.8 °C 0.3 °C 1021.2 hPa SW 4.8 km/h 16.1 km/h 90% 0 mm 0 W/m2
17:50 1.7 °C 0.2 °C 1021.2 hPa WSW 4.8 km/h 12.9 km/h 90% 0 mm 0 W/m2
18:00 1.7 °C 0.2 °C 1021.2 hPa WSW 11.3 km/h 19.3 km/h 90% 0 mm 0 W/m2
18:10 1.7 °C 0.2 °C 1021.2 hPa SW 12.9 km/h 29 km/h 90% 0 mm 0 W/m2
18:20 1.8 °C 0.3 °C 1021.6 hPa SW 8 km/h 29 km/h 90% 0 mm 0 W/m2
18:30 1.8 °C 0.3 °C 1021.6 hPa SW 8 km/h 16.1 km/h 90% 0 mm 0 W/m2
18:40 1.8 °C 0.3 °C 1021.6 hPa SW 4.8 km/h 12.9 km/h 90% 0 mm 0 W/m2
18:50 1.8 °C 0.3 °C 1021.6 hPa SW 4.8 km/h 11.3 km/h 90% 0 mm 0 W/m2
19:00 1.7 °C 0.2 °C 1021.6 hPa SSW 8 km/h 9.7 km/h 90% 0 mm 0 W/m2
19:10 1.7 °C 0.4 °C 1021.6 hPa SW 4.8 km/h 9.7 km/h 91% 0 mm 0 W/m2
19:20 1.7 °C 0.2 °C 1021.6 hPa WSW 9.7 km/h 14.5 km/h 90% 0 mm 0 W/m2
19:30 1.7 °C 0.2 °C 1021.6 hPa SW 11.3 km/h 14.5 km/h 90% 0 mm 0 W/m2
19:40 1.7 °C 0.2 °C 1021.6 hPa WSW 11.3 km/h 14.5 km/h 90% 0 mm 0 W/m2
19:50 1.6 °C 0.1 °C 1021.6 hPa WSW 11.3 km/h 14.5 km/h 90% 0 mm 0 W/m2
20:00 1.6 °C 0.3 °C 1021.9 hPa SW 9.7 km/h 24.1 km/h 91% 0 mm 0 W/m2
20:10 1.5 °C 0.2 °C 1021.9 hPa SW 14.5 km/h 22.5 km/h 91% 0 mm 0 W/m2
20:20 1.5 °C 0.5 °C 1021.9 hPa SW 4.8 km/h 25.7 km/h 93% 0 mm 0 W/m2
20:30 1.4 °C 0.6 °C 1021.9 hPa SW 4.8 km/h 11.3 km/h 94% 0 mm 0 W/m2
20:40 1.3 °C 0.4 °C 1021.9 hPa SW 4.8 km/h 12.9 km/h 94% 0 mm 0 W/m2
20:50 1.2 °C 0.5 °C 1022.2 hPa SW 8 km/h 16.1 km/h 95% 0 mm 0 W/m2
21:00 1.1 °C 0.5 °C 1021.9 hPa SW 4.8 km/h 16.1 km/h 96% 0 mm 0 W/m2
21:10 1 °C 0.4 °C 1022.2 hPa SW 4.8 km/h 12.9 km/h 96% 0 mm 0 W/m2
21:20 0.9 °C 0.3 °C 1022.2 hPa SW 4.8 km/h 11.3 km/h 96% 0 mm 0 W/m2
21:30 0.9 °C 0.6 °C 1022.2 hPa WSW 8 km/h 12.9 km/h 98% 0 mm 0 W/m2
21:40 0.8 °C 0.5 °C 1022.2 hPa SW 3.2 km/h 9.7 km/h 98% 0 mm 0 W/m2
21:50 0.8 °C 0.5 °C 1022.2 hPa SW 3.2 km/h 8 km/h 98% 0 mm 0 W/m2
22:00 0.8 °C 0.7 °C 1022.2 hPa WSW 3.2 km/h 8 km/h 99% 0 mm 0 W/m2
22:10 0.8 °C 0.7 °C 1022.2 hPa South 3.2 km/h 8 km/h 99% 0 mm 0 W/m2
22:20 0.8 °C 0.7 °C 1022.2 hPa SW 1.6 km/h 6.4 km/h 99% 0 mm 0 W/m2
22:30 0.8 °C 0.7 °C 1022.2 hPa SSW 1.6 km/h 4.8 km/h 99% 0 mm 0 W/m2
22:40 0.8 °C 0.7 °C 1022.2 hPa Calm   6.4 km/h 99% 0 mm 0 W/m2
22:50 0.7 °C 0.6 °C 1022.2 hPa Calm   3.2 km/h 99% 0 mm 0 W/m2
23:00 0.7 °C 0.6 °C 1022.2 hPa WSW 1.6 km/h 3.2 km/h 99% 0 mm 0 W/m2
23:10 0.7 °C 0.6 °C 1022.2 hPa WSW 1.6 km/h 3.2 km/h 99% 0 mm 0 W/m2
23:20 0.7 °C 0.6 °C 1022.2 hPa SW 1.6 km/h 3.2 km/h 99% 0 mm 0 W/m2
23:30 0.7 °C 0.6 °C 1021.9 hPa South 1.6 km/h 6.4 km/h 99% 0 mm 0 W/m2
23:40 0.7 °C 0.6 °C 1021.9 hPa West 1.6 km/h 3.2 km/h 99% 0 mm 0 W/m2
23:50 0.7 °C 0.6 °C 1021.9 hPa WSW 1.6 km/h 3.2 km/h 99% 0 mm 0 W/m2
Knjazevac, Serbia
Compliments of Weather Underground - 2 mb